sensor_id;sensor_type;location;lat;lon;timestamp;P1;durP1;ratioP1;P2;durP2;ratioP2
34711;SDS011;20941;42.408;25.634;2023-12-07T00:01:47;43.92;;;19.48;;
34711;SDS011;20941;42.408;25.634;2023-12-07T00:04:13;32.55;;;15.07;;
34711;SDS011;20941;42.408;25.634;2023-12-07T00:06:39;34.05;;;15.68;;
34711;SDS011;20941;42.408;25.634;2023-12-07T00:09:04;34.35;;;16.38;;
34711;SDS011;20941;42.408;25.634;2023-12-07T00:11:30;33.33;;;16.58;;
34711;SDS011;20941;42.408;25.634;2023-12-07T00:13:56;36.67;;;16.25;;
34711;SDS011;20941;42.408;25.634;2023-12-07T00:16:21;34.58;;;15.60;;
34711;SDS011;20941;42.408;25.634;2023-12-07T00:18:47;41.22;;;17.02;;
34711;SDS011;20941;42.408;25.634;2023-12-07T00:21:13;37.10;;;17.00;;
34711;SDS011;20941;42.408;25.634;2023-12-07T00:23:38;41.08;;;17.60;;
34711;SDS011;20941;42.408;25.634;2023-12-07T00:26:04;29.50;;;15.18;;
34711;SDS011;20941;42.408;25.634;2023-12-07T00:28:30;37.45;;;16.52;;
34711;SDS011;20941;42.408;25.634;2023-12-07T00:30:56;37.35;;;15.65;;
34711;SDS011;20941;42.408;25.634;2023-12-07T00:33:21;34.40;;;15.55;;
34711;SDS011;20941;42.408;25.634;2023-12-07T00:35:47;34.15;;;15.02;;
34711;SDS011;20941;42.408;25.634;2023-12-07T00:38:13;32.33;;;14.02;;
34711;SDS011;20941;42.408;25.634;2023-12-07T00:40:39;31.65;;;13.75;;
34711;SDS011;20941;42.408;25.634;2023-12-07T00:43:05;30.30;;;14.65;;
34711;SDS011;20941;42.408;25.634;2023-12-07T00:45:32;32.35;;;13.70;;
34711;SDS011;20941;42.408;25.634;2023-12-07T00:47:57;31.98;;;13.75;;
34711;SDS011;20941;42.408;25.634;2023-12-07T00:50:23;33.38;;;13.50;;
34711;SDS011;20941;42.408;25.634;2023-12-07T00:52:49;32.33;;;13.82;;
34711;SDS011;20941;42.408;25.634;2023-12-07T00:55:15;38.58;;;16.15;;
34711;SDS011;20941;42.408;25.634;2023-12-07T00:57:40;33.50;;;14.68;;
34711;SDS011;20941;42.408;25.634;2023-12-07T01:00:06;36.55;;;15.93;;
34711;SDS011;20941;42.408;25.634;2023-12-07T01:02:33;44.13;;;17.88;;
34711;SDS011;20941;42.408;25.634;2023-12-07T01:04:59;53.67;;;20.27;;
34711;SDS011;20941;42.408;25.634;2023-12-07T01:07:25;52.50;;;21.17;;
34711;SDS011;20941;42.408;25.634;2023-12-07T01:09:50;57.88;;;21.60;;
34711;SDS011;20941;42.408;25.634;2023-12-07T01:12:16;57.08;;;21.77;;
34711;SDS011;20941;42.408;25.634;2023-12-07T01:14:41;59.35;;;22.42;;
34711;SDS011;20941;42.408;25.634;2023-12-07T01:17:07;61.10;;;24.40;;
34711;SDS011;20941;42.408;25.634;2023-12-07T01:19:33;52.70;;;21.60;;
34711;SDS011;20941;42.408;25.634;2023-12-07T01:21:59;47.85;;;20.30;;
34711;SDS011;20941;42.408;25.634;2023-12-07T01:24:25;56.08;;;21.73;;
34711;SDS011;20941;42.408;25.634;2023-12-07T01:26:50;52.65;;;21.38;;
34711;SDS011;20941;42.408;25.634;2023-12-07T01:29:16;74.68;;;26.83;;
34711;SDS011;20941;42.408;25.634;2023-12-07T01:31:43;68.90;;;25.42;;
34711;SDS011;20941;42.408;25.634;2023-12-07T01:34:09;61.30;;;23.67;;
34711;SDS011;20941;42.408;25.634;2023-12-07T01:36:34;55.08;;;22.80;;
34711;SDS011;20941;42.408;25.634;2023-12-07T01:39:00;53.88;;;21.85;;
34711;SDS011;20941;42.408;25.634;2023-12-07T01:41:26;48.92;;;21.08;;
34711;SDS011;20941;42.408;25.634;2023-12-07T01:43:51;50.60;;;21.50;;
34711;SDS011;20941;42.408;25.634;2023-12-07T01:46:17;54.10;;;22.00;;
34711;SDS011;20941;42.408;25.634;2023-12-07T01:48:43;48.78;;;21.13;;
34711;SDS011;20941;42.408;25.634;2023-12-07T01:51:09;47.78;;;20.75;;
34711;SDS011;20941;42.408;25.634;2023-12-07T01:53:37;44.80;;;18.92;;
34711;SDS011;20941;42.408;25.634;2023-12-07T01:56:04;43.10;;;19.13;;
34711;SDS011;20941;42.408;25.634;2023-12-07T01:58:32;38.20;;;17.77;;
34711;SDS011;20941;42.408;25.634;2023-12-07T02:00:57;45.83;;;18.90;;
34711;SDS011;20941;42.408;25.634;2023-12-07T02:03:23;48.28;;;18.67;;
34711;SDS011;20941;42.408;25.634;2023-12-07T02:05:49;40.33;;;18.52;;
34711;SDS011;20941;42.408;25.634;2023-12-07T02:08:16;36.53;;;17.27;;
34711;SDS011;20941;42.408;25.634;2023-12-07T02:10:42;36.60;;;16.50;;
34711;SDS011;20941;42.408;25.634;2023-12-07T02:13:07;34.25;;;16.60;;
34711;SDS011;20941;42.408;25.634;2023-12-07T02:15:34;46.05;;;18.65;;
34711;SDS011;20941;42.408;25.634;2023-12-07T02:18:38;31.55;;;15.80;;
34711;SDS011;20941;42.408;25.634;2023-12-07T02:21:13;36.72;;;16.58;;
34711;SDS011;20941;42.408;25.634;2023-12-07T02:23:46;37.20;;;16.58;;
34711;SDS011;20941;42.408;25.634;2023-12-07T02:29:14;87.90;;;26.67;;
34711;SDS011;20941;42.408;25.634;2023-12-07T02:31:40;32.47;;;15.27;;
34711;SDS011;20941;42.408;25.634;2023-12-07T02:34:06;33.03;;;15.63;;
34711;SDS011;20941;42.408;25.634;2023-12-07T02:36:32;41.47;;;16.55;;
34711;SDS011;20941;42.408;25.634;2023-12-07T02:39:00;32.70;;;14.95;;
34711;SDS011;20941;42.408;25.634;2023-12-07T02:41:29;36.25;;;15.23;;
34711;SDS011;20941;42.408;25.634;2023-12-07T02:43:57;28.77;;;15.15;;
34711;SDS011;20941;42.408;25.634;2023-12-07T02:46:26;29.45;;;14.38;;
34711;SDS011;20941;42.408;25.634;2023-12-07T02:48:52;31.27;;;14.88;;
34711;SDS011;20941;42.408;25.634;2023-12-07T02:51:18;33.05;;;14.45;;
34711;SDS011;20941;42.408;25.634;2023-12-07T02:53:44;31.58;;;14.75;;
34711;SDS011;20941;42.408;25.634;2023-12-07T02:56:10;38.83;;;16.23;;
34711;SDS011;20941;42.408;25.634;2023-12-07T02:58:35;33.47;;;15.68;;
34711;SDS011;20941;42.408;25.634;2023-12-07T03:01:01;26.73;;;14.05;;
34711;SDS011;20941;42.408;25.634;2023-12-07T03:03:26;28.45;;;14.30;;
34711;SDS011;20941;42.408;25.634;2023-12-07T03:05:52;33.10;;;14.40;;
34711;SDS011;20941;42.408;25.634;2023-12-07T03:08:18;36.92;;;15.15;;
34711;SDS011;20941;42.408;25.634;2023-12-07T03:10:43;33.80;;;14.43;;
34711;SDS011;20941;42.408;25.634;2023-12-07T03:13:09;38.90;;;15.70;;
34711;SDS011;20941;42.408;25.634;2023-12-07T03:15:34;27.00;;;13.05;;
34711;SDS011;20941;42.408;25.634;2023-12-07T03:18:00;31.73;;;13.75;;
34711;SDS011;20941;42.408;25.634;2023-12-07T03:20:26;33.50;;;13.82;;
34711;SDS011;20941;42.408;25.634;2023-12-07T03:22:52;31.25;;;14.60;;
34711;SDS011;20941;42.408;25.634;2023-12-07T03:25:17;30.25;;;14.63;;
34711;SDS011;20941;42.408;25.634;2023-12-07T03:27:43;33.75;;;14.35;;
34711;SDS011;20941;42.408;25.634;2023-12-07T03:30:09;28.05;;;12.65;;
34711;SDS011;20941;42.408;25.634;2023-12-07T03:32:34;31.20;;;14.23;;
34711;SDS011;20941;42.408;25.634;2023-12-07T03:35:00;24.45;;;12.35;;
34711;SDS011;20941;42.408;25.634;2023-12-07T03:40:11;23.35;;;11.25;;
34711;SDS011;20941;42.408;25.634;2023-12-07T03:42:36;24.35;;;11.38;;
34711;SDS011;20941;42.408;25.634;2023-12-07T03:45:02;23.00;;;11.73;;
34711;SDS011;20941;42.408;25.634;2023-12-07T03:47:28;26.98;;;12.30;;
34711;SDS011;20941;42.408;25.634;2023-12-07T03:49:53;26.52;;;12.95;;
34711;SDS011;20941;42.408;25.634;2023-12-07T03:52:19;77.75;;;22.85;;
34711;SDS011;20941;42.408;25.634;2023-12-07T03:54:45;43.47;;;16.88;;
34711;SDS011;20941;42.408;25.634;2023-12-07T03:57:10;64.30;;;19.02;;
34711;SDS011;20941;42.408;25.634;2023-12-07T03:59:36;33.78;;;14.15;;
34711;SDS011;20941;42.408;25.634;2023-12-07T04:02:02;26.17;;;11.93;;
34711;SDS011;20941;42.408;25.634;2023-12-07T04:04:27;33.67;;;13.77;;
34711;SDS011;20941;42.408;25.634;2023-12-07T04:06:53;48.95;;;17.00;;
34711;SDS011;20941;42.408;25.634;2023-12-07T04:09:19;55.22;;;20.70;;
34711;SDS011;20941;42.408;25.634;2023-12-07T04:11:44;29.58;;;13.63;;
34711;SDS011;20941;42.408;25.634;2023-12-07T04:14:11;26.38;;;12.75;;
34711;SDS011;20941;42.408;25.634;2023-12-07T04:16:37;27.63;;;13.38;;
34711;SDS011;20941;42.408;25.634;2023-12-07T04:19:02;34.33;;;14.32;;
34711;SDS011;20941;42.408;25.634;2023-12-07T04:21:28;39.60;;;18.38;;
34711;SDS011;20941;42.408;25.634;2023-12-07T04:23:54;44.65;;;19.92;;
34711;SDS011;20941;42.408;25.634;2023-12-07T04:26:19;42.35;;;19.88;;
34711;SDS011;20941;42.408;25.634;2023-12-07T04:28:45;42.65;;;18.60;;
34711;SDS011;20941;42.408;25.634;2023-12-07T04:31:10;40.65;;;18.40;;
34711;SDS011;20941;42.408;25.634;2023-12-07T04:33:36;36.90;;;17.20;;
34711;SDS011;20941;42.408;25.634;2023-12-07T04:36:02;35.92;;;16.08;;
34711;SDS011;20941;42.408;25.634;2023-12-07T04:38:29;31.83;;;16.67;;
34711;SDS011;20941;42.408;25.634;2023-12-07T04:40:55;39.05;;;18.35;;
34711;SDS011;20941;42.408;25.634;2023-12-07T04:43:21;33.13;;;15.90;;
34711;SDS011;20941;42.408;25.634;2023-12-07T04:45:46;34.33;;;15.80;;
34711;SDS011;20941;42.408;25.634;2023-12-07T04:48:12;33.35;;;15.57;;
34711;SDS011;20941;42.408;25.634;2023-12-07T04:50:38;33.72;;;15.82;;
34711;SDS011;20941;42.408;25.634;2023-12-07T04:53:03;40.03;;;18.15;;
34711;SDS011;20941;42.408;25.634;2023-12-07T04:55:29;36.70;;;16.48;;
34711;SDS011;20941;42.408;25.634;2023-12-07T04:57:54;34.50;;;15.98;;
34711;SDS011;20941;42.408;25.634;2023-12-07T05:00:20;38.58;;;19.08;;
34711;SDS011;20941;42.408;25.634;2023-12-07T05:02:46;73.85;;;39.80;;
34711;SDS011;20941;42.408;25.634;2023-12-07T05:05:13;69.95;;;34.40;;
34711;SDS011;20941;42.408;25.634;2023-12-07T05:07:39;60.05;;;29.40;;
34711;SDS011;20941;42.408;25.634;2023-12-07T05:10:05;70.63;;;36.83;;
34711;SDS011;20941;42.408;25.634;2023-12-07T05:12:31;75.28;;;37.17;;
34711;SDS011;20941;42.408;25.634;2023-12-07T05:14:57;117.72;;;63.15;;
34711;SDS011;20941;42.408;25.634;2023-12-07T05:17:23;94.15;;;49.03;;
34711;SDS011;20941;42.408;25.634;2023-12-07T05:19:49;84.60;;;33.08;;
34711;SDS011;20941;42.408;25.634;2023-12-07T05:22:14;47.72;;;20.80;;
34711;SDS011;20941;42.408;25.634;2023-12-07T05:24:40;22.95;;;11.02;;
34711;SDS011;20941;42.408;25.634;2023-12-07T05:27:06;25.80;;;13.25;;
34711;SDS011;20941;42.408;25.634;2023-12-07T05:29:31;24.77;;;12.23;;
34711;SDS011;20941;42.408;25.634;2023-12-07T05:31:57;22.35;;;10.45;;
34711;SDS011;20941;42.408;25.634;2023-12-07T05:34:23;21.38;;;11.02;;
34711;SDS011;20941;42.408;25.634;2023-12-07T05:36:48;108.75;;;57.08;;
34711;SDS011;20941;42.408;25.634;2023-12-07T05:39:14;98.68;;;47.95;;
34711;SDS011;20941;42.408;25.634;2023-12-07T05:41:39;76.82;;;37.25;;
34711;SDS011;20941;42.408;25.634;2023-12-07T05:44:05;57.65;;;29.77;;
34711;SDS011;20941;42.408;25.634;2023-12-07T05:46:31;60.63;;;32.65;;
34711;SDS011;20941;42.408;25.634;2023-12-07T05:48:57;102.53;;;64.47;;
34711;SDS011;20941;42.408;25.634;2023-12-07T05:51:23;127.65;;;81.68;;
34711;SDS011;20941;42.408;25.634;2023-12-07T05:53:49;76.70;;;37.25;;
34711;SDS011;20941;42.408;25.634;2023-12-07T05:56:19;87.18;;;31.92;;
34711;SDS011;20941;42.408;25.634;2023-12-07T05:58:45;49.95;;;18.58;;
34711;SDS011;20941;42.408;25.634;2023-12-07T06:01:11;30.73;;;13.73;;
34711;SDS011;20941;42.408;25.634;2023-12-07T06:03:37;37.50;;;14.75;;
34711;SDS011;20941;42.408;25.634;2023-12-07T06:06:02;72.20;;;31.00;;
34711;SDS011;20941;42.408;25.634;2023-12-07T06:08:29;164.43;;;60.60;;
34711;SDS011;20941;42.408;25.634;2023-12-07T06:10:54;83.03;;;33.65;;
34711;SDS011;20941;42.408;25.634;2023-12-07T06:13:20;106.85;;;52.95;;
34711;SDS011;20941;42.408;25.634;2023-12-07T06:15:46;267.27;;;80.00;;
34711;SDS011;20941;42.408;25.634;2023-12-07T06:18:12;237.13;;;61.03;;
34711;SDS011;20941;42.408;25.634;2023-12-07T06:20:38;129.88;;;34.50;;
34711;SDS011;20941;42.408;25.634;2023-12-07T06:23:04;31.80;;;11.65;;
34711;SDS011;20941;42.408;25.634;2023-12-07T06:25:30;23.48;;;9.43;;
34711;SDS011;20941;42.408;25.634;2023-12-07T06:27:58;45.38;;;12.18;;
34711;SDS011;20941;42.408;25.634;2023-12-07T06:30:24;97.95;;;40.03;;
34711;SDS011;20941;42.408;25.634;2023-12-07T06:32:52;45.45;;;23.02;;
34711;SDS011;20941;42.408;25.634;2023-12-07T06:35:19;54.25;;;25.80;;
34711;SDS011;20941;42.408;25.634;2023-12-07T06:37:44;54.20;;;28.60;;
34711;SDS011;20941;42.408;25.634;2023-12-07T06:40:10;101.55;;;54.80;;
34711;SDS011;20941;42.408;25.634;2023-12-07T06:42:36;36.88;;;21.55;;
34711;SDS011;20941;42.408;25.634;2023-12-07T06:45:02;41.13;;;23.08;;
34711;SDS011;20941;42.408;25.634;2023-12-07T06:47:28;69.38;;;32.08;;
34711;SDS011;20941;42.408;25.634;2023-12-07T06:49:54;71.13;;;32.22;;
34711;SDS011;20941;42.408;25.634;2023-12-07T06:52:23;39.20;;;17.83;;
34711;SDS011;20941;42.408;25.634;2023-12-07T06:54:49;31.60;;;15.27;;
34711;SDS011;20941;42.408;25.634;2023-12-07T06:57:15;20.23;;;9.45;;
34711;SDS011;20941;42.408;25.634;2023-12-07T06:59:40;25.67;;;10.88;;
34711;SDS011;20941;42.408;25.634;2023-12-07T07:02:09;31.25;;;11.95;;
34711;SDS011;20941;42.408;25.634;2023-12-07T07:04:35;114.80;;;28.65;;
34711;SDS011;20941;42.408;25.634;2023-12-07T07:07:01;36.03;;;13.23;;
34711;SDS011;20941;42.408;25.634;2023-12-07T07:09:27;21.80;;;10.60;;
34711;SDS011;20941;42.408;25.634;2023-12-07T07:11:53;17.65;;;7.63;;
34711;SDS011;20941;42.408;25.634;2023-12-07T07:14:19;8.68;;;5.72;;
34711;SDS011;20941;42.408;25.634;2023-12-07T07:16:45;11.35;;;7.20;;
34711;SDS011;20941;42.408;25.634;2023-12-07T07:19:10;14.77;;;8.32;;
34711;SDS011;20941;42.408;25.634;2023-12-07T07:21:37;16.17;;;7.60;;
34711;SDS011;20941;42.408;25.634;2023-12-07T07:24:03;11.50;;;6.97;;
34711;SDS011;20941;42.408;25.634;2023-12-07T07:26:28;11.82;;;6.50;;
34711;SDS011;20941;42.408;25.634;2023-12-07T07:28:54;15.40;;;7.88;;
34711;SDS011;20941;42.408;25.634;2023-12-07T07:31:23;15.55;;;7.40;;
34711;SDS011;20941;42.408;25.634;2023-12-07T07:33:49;22.95;;;12.40;;
34711;SDS011;20941;42.408;25.634;2023-12-07T07:36:15;26.42;;;12.80;;
34711;SDS011;20941;42.408;25.634;2023-12-07T07:38:50;35.72;;;16.42;;
34711;SDS011;20941;42.408;25.634;2023-12-07T07:41:18;31.10;;;13.10;;
34711;SDS011;20941;42.408;25.634;2023-12-07T07:43:44;32.80;;;15.10;;
34711;SDS011;20941;42.408;25.634;2023-12-07T07:46:11;35.17;;;13.95;;
34711;SDS011;20941;42.408;25.634;2023-12-07T07:48:37;24.40;;;9.90;;
34711;SDS011;20941;42.408;25.634;2023-12-07T07:51:07;14.70;;;6.65;;
34711;SDS011;20941;42.408;25.634;2023-12-07T07:53:33;11.05;;;6.03;;
34711;SDS011;20941;42.408;25.634;2023-12-07T07:55:59;8.50;;;5.38;;
34711;SDS011;20941;42.408;25.634;2023-12-07T07:58:25;13.48;;;6.68;;
34711;SDS011;20941;42.408;25.634;2023-12-07T08:00:52;13.25;;;7.57;;
34711;SDS011;20941;42.408;25.634;2023-12-07T08:03:36;12.48;;;7.28;;
34711;SDS011;20941;42.408;25.634;2023-12-07T08:06:11;12.65;;;6.43;;
34711;SDS011;20941;42.408;25.634;2023-12-07T08:08:40;6.03;;;4.22;;
34711;SDS011;20941;42.408;25.634;2023-12-07T08:11:14;10.50;;;4.70;;
34711;SDS011;20941;42.408;25.634;2023-12-07T08:13:40;6.65;;;4.35;;
34711;SDS011;20941;42.408;25.634;2023-12-07T08:16:08;9.68;;;4.55;;
34711;SDS011;20941;42.408;25.634;2023-12-07T08:18:36;8.27;;;4.55;;
34711;SDS011;20941;42.408;25.634;2023-12-07T08:21:02;5.45;;;4.15;;
34711;SDS011;20941;42.408;25.634;2023-12-07T08:23:29;9.02;;;4.90;;
34711;SDS011;20941;42.408;25.634;2023-12-07T08:25:55;8.98;;;4.80;;
34711;SDS011;20941;42.408;25.634;2023-12-07T08:28:22;9.35;;;5.15;;
34711;SDS011;20941;42.408;25.634;2023-12-07T08:30:48;9.48;;;5.13;;
34711;SDS011;20941;42.408;25.634;2023-12-07T08:33:14;7.78;;;4.80;;
34711;SDS011;20941;42.408;25.634;2023-12-07T08:35:39;5.40;;;3.88;;
34711;SDS011;20941;42.408;25.634;2023-12-07T08:38:05;9.88;;;4.43;;
34711;SDS011;20941;42.408;25.634;2023-12-07T08:40:31;9.65;;;5.47;;
34711;SDS011;20941;42.408;25.634;2023-12-07T08:42:57;10.57;;;5.60;;
34711;SDS011;20941;42.408;25.634;2023-12-07T08:45:23;9.48;;;4.95;;
34711;SDS011;20941;42.408;25.634;2023-12-07T08:47:52;10.43;;;5.47;;
34711;SDS011;20941;42.408;25.634;2023-12-07T08:50:17;11.32;;;6.55;;
34711;SDS011;20941;42.408;25.634;2023-12-07T08:52:43;9.65;;;4.80;;
34711;SDS011;20941;42.408;25.634;2023-12-07T08:55:09;8.15;;;4.55;;
34711;SDS011;20941;42.408;25.634;2023-12-07T08:57:35;8.07;;;4.55;;
34711;SDS011;20941;42.408;25.634;2023-12-07T09:00:00;6.80;;;3.67;;
34711;SDS011;20941;42.408;25.634;2023-12-07T09:02:26;6.47;;;3.42;;
34711;SDS011;20941;42.408;25.634;2023-12-07T09:04:52;3.67;;;2.90;;
34711;SDS011;20941;42.408;25.634;2023-12-07T09:07:17;10.98;;;3.25;;
34711;SDS011;20941;42.408;25.634;2023-12-07T09:09:45;9.20;;;3.60;;
34711;SDS011;20941;42.408;25.634;2023-12-07T09:12:15;4.65;;;3.10;;
34711;SDS011;20941;42.408;25.634;2023-12-07T09:14:56;4.65;;;3.50;;
34711;SDS011;20941;42.408;25.634;2023-12-07T09:17:28;6.68;;;3.50;;
34711;SDS011;20941;42.408;25.634;2023-12-07T09:20:18;8.13;;;3.88;;
34711;SDS011;20941;42.408;25.634;2023-12-07T09:22:49;7.80;;;3.53;;
34711;SDS011;20941;42.408;25.634;2023-12-07T09:25:22;8.03;;;3.80;;
34711;SDS011;20941;42.408;25.634;2023-12-07T09:27:54;3.95;;;2.58;;
34711;SDS011;20941;42.408;25.634;2023-12-07T09:30:22;5.47;;;3.50;;
34711;SDS011;20941;42.408;25.634;2023-12-07T09:33:10;5.05;;;3.40;;
34711;SDS011;20941;42.408;25.634;2023-12-07T09:35:36;5.88;;;3.42;;
34711;SDS011;20941;42.408;25.634;2023-12-07T09:38:03;4.72;;;3.15;;
34711;SDS011;20941;42.408;25.634;2023-12-07T09:40:30;3.17;;;2.67;;
34711;SDS011;20941;42.408;25.634;2023-12-07T09:42:55;5.43;;;2.90;;
34711;SDS011;20941;42.408;25.634;2023-12-07T09:45:21;4.53;;;3.10;;
34711;SDS011;20941;42.408;25.634;2023-12-07T09:47:48;4.28;;;2.90;;
34711;SDS011;20941;42.408;25.634;2023-12-07T09:50:16;5.43;;;3.42;;
34711;SDS011;20941;42.408;25.634;2023-12-07T09:52:48;8.00;;;3.63;;
34711;SDS011;20941;42.408;25.634;2023-12-07T09:55:39;3.55;;;2.78;;
34711;SDS011;20941;42.408;25.634;2023-12-07T09:58:05;5.28;;;2.92;;
34711;SDS011;20941;42.408;25.634;2023-12-07T10:00:35;3.17;;;2.80;;
34711;SDS011;20941;42.408;25.634;2023-12-07T10:03:03;6.95;;;2.78;;
34711;SDS011;20941;42.408;25.634;2023-12-07T10:05:34;9.43;;;3.67;;
34711;SDS011;20941;42.408;25.634;2023-12-07T10:08:25;7.00;;;3.33;;
34711;SDS011;20941;42.408;25.634;2023-12-07T10:11:10;9.20;;;3.45;;
34711;SDS011;20941;42.408;25.634;2023-12-07T10:13:40;7.53;;;3.53;;
34711;SDS011;20941;42.408;25.634;2023-12-07T10:16:15;7.10;;;3.58;;
34711;SDS011;20941;42.408;25.634;2023-12-07T10:18:42;6.57;;;3.42;;
34711;SDS011;20941;42.408;25.634;2023-12-07T10:21:09;8.82;;;4.20;;
34711;SDS011;20941;42.408;25.634;2023-12-07T10:23:36;4.68;;;3.08;;
34711;SDS011;20941;42.408;25.634;2023-12-07T10:26:02;4.18;;;3.42;;
34711;SDS011;20941;42.408;25.634;2023-12-07T10:28:34;5.07;;;3.40;;
34711;SDS011;20941;42.408;25.634;2023-12-07T10:31:15;5.22;;;3.65;;
34711;SDS011;20941;42.408;25.634;2023-12-07T10:33:47;7.28;;;3.22;;
34711;SDS011;20941;42.408;25.634;2023-12-07T10:36:14;12.82;;;5.10;;
34711;SDS011;20941;42.408;25.634;2023-12-07T10:38:39;6.25;;;3.33;;
34711;SDS011;20941;42.408;25.634;2023-12-07T10:41:07;8.70;;;3.30;;
34711;SDS011;20941;42.408;25.634;2023-12-07T10:43:38;6.20;;;3.22;;
34711;SDS011;20941;42.408;25.634;2023-12-07T10:46:07;11.55;;;4.40;;
34711;SDS011;20941;42.408;25.634;2023-12-07T10:48:35;10.80;;;4.45;;
34711;SDS011;20941;42.408;25.634;2023-12-07T10:51:07;12.73;;;5.90;;
34711;SDS011;20941;42.408;25.634;2023-12-07T10:53:40;13.57;;;6.07;;
34711;SDS011;20941;42.408;25.634;2023-12-07T10:56:14;12.23;;;4.28;;
34711;SDS011;20941;42.408;25.634;2023-12-07T10:58:44;14.50;;;6.07;;
34711;SDS011;20941;42.408;25.634;2023-12-07T11:01:12;4.35;;;3.13;;
34711;SDS011;20941;42.408;25.634;2023-12-07T11:03:39;5.53;;;3.38;;
34711;SDS011;20941;42.408;25.634;2023-12-07T11:06:06;6.90;;;3.30;;
34711;SDS011;20941;42.408;25.634;2023-12-07T11:08:38;9.32;;;4.55;;
34711;SDS011;20941;42.408;25.634;2023-12-07T11:11:12;8.63;;;4.97;;
34711;SDS011;20941;42.408;25.634;2023-12-07T11:14:02;13.05;;;6.40;;
34711;SDS011;20941;42.408;25.634;2023-12-07T11:16:38;13.80;;;6.15;;
34711;SDS011;20941;42.408;25.634;2023-12-07T11:19:25;19.98;;;7.05;;
34711;SDS011;20941;42.408;25.634;2023-12-07T11:22:08;17.88;;;6.78;;
34711;SDS011;20941;42.408;25.634;2023-12-07T11:24:36;21.25;;;8.10;;
34711;SDS011;20941;42.408;25.634;2023-12-07T11:27:02;18.13;;;6.68;;
34711;SDS011;20941;42.408;25.634;2023-12-07T11:29:50;16.70;;;6.82;;
34711;SDS011;20941;42.408;25.634;2023-12-07T11:32:21;15.75;;;6.57;;
34711;SDS011;20941;42.408;25.634;2023-12-07T11:34:48;20.48;;;6.70;;
34711;SDS011;20941;42.408;25.634;2023-12-07T11:37:15;13.10;;;6.57;;
34711;SDS011;20941;42.408;25.634;2023-12-07T11:39:42;17.92;;;6.63;;
34711;SDS011;20941;42.408;25.634;2023-12-07T11:42:22;12.82;;;5.82;;
34711;SDS011;20941;42.408;25.634;2023-12-07T11:44:49;15.00;;;7.45;;
34711;SDS011;20941;42.408;25.634;2023-12-07T11:47:16;24.48;;;11.23;;
34711;SDS011;20941;42.408;25.634;2023-12-07T11:49:43;25.17;;;7.53;;
34711;SDS011;20941;42.408;25.634;2023-12-07T11:52:13;11.48;;;6.47;;
34711;SDS011;20941;42.408;25.634;2023-12-07T11:54:39;8.13;;;4.25;;
34711;SDS011;20941;42.408;25.634;2023-12-07T11:57:06;10.93;;;4.82;;
34711;SDS011;20941;42.408;25.634;2023-12-07T11:59:31;17.67;;;5.15;;
34711;SDS011;20941;42.408;25.634;2023-12-07T12:02:01;16.48;;;4.35;;
34711;SDS011;20941;42.408;25.634;2023-12-07T12:04:30;6.07;;;3.65;;
34711;SDS011;20941;42.408;25.634;2023-12-07T12:06:56;8.50;;;3.58;;
34711;SDS011;20941;42.408;25.634;2023-12-07T12:09:23;6.38;;;3.58;;
34711;SDS011;20941;42.408;25.634;2023-12-07T12:11:49;3.80;;;3.30;;
34711;SDS011;20941;42.408;25.634;2023-12-07T12:14:16;12.20;;;5.18;;
34711;SDS011;20941;42.408;25.634;2023-12-07T12:20:05;6.25;;;3.83;;
34711;SDS011;20941;42.408;25.634;2023-12-07T12:22:31;6.15;;;3.75;;
34711;SDS011;20941;42.408;25.634;2023-12-07T12:25:18;6.85;;;3.10;;
34711;SDS011;20941;42.408;25.634;2023-12-07T12:27:54;4.00;;;3.30;;
34711;SDS011;20941;42.408;25.634;2023-12-07T12:30:21;7.60;;;3.88;;
34711;SDS011;20941;42.408;25.634;2023-12-07T12:32:50;8.88;;;4.10;;
34711;SDS011;20941;42.408;25.634;2023-12-07T12:35:17;12.70;;;4.07;;
34711;SDS011;20941;42.408;25.634;2023-12-07T12:37:43;5.85;;;2.03;;
34711;SDS011;20941;42.408;25.634;2023-12-07T12:40:10;3.30;;;2.47;;
34711;SDS011;20941;42.408;25.634;2023-12-07T12:42:38;5.22;;;2.75;;
34711;SDS011;20941;42.408;25.634;2023-12-07T12:45:04;5.75;;;3.05;;
34711;SDS011;20941;42.408;25.634;2023-12-07T12:47:31;6.90;;;3.28;;
34711;SDS011;20941;42.408;25.634;2023-12-07T12:49:58;10.80;;;4.25;;
34711;SDS011;20941;42.408;25.634;2023-12-07T12:52:24;17.02;;;5.82;;
34711;SDS011;20941;42.408;25.634;2023-12-07T12:54:55;19.80;;;5.35;;
34711;SDS011;20941;42.408;25.634;2023-12-07T12:57:21;3.22;;;2.85;;
34711;SDS011;20941;42.408;25.634;2023-12-07T12:59:47;6.30;;;3.50;;
34711;SDS011;20941;42.408;25.634;2023-12-07T13:02:13;6.47;;;3.60;;
34711;SDS011;20941;42.408;25.634;2023-12-07T13:04:39;9.27;;;3.78;;
34711;SDS011;20941;42.408;25.634;2023-12-07T13:07:13;9.55;;;4.03;;
34711;SDS011;20941;42.408;25.634;2023-12-07T13:12:23;3.15;;;2.33;;
34711;SDS011;20941;42.408;25.634;2023-12-07T13:14:50;7.95;;;3.45;;
34711;SDS011;20941;42.408;25.634;2023-12-07T13:17:15;5.80;;;3.35;;
34711;SDS011;20941;42.408;25.634;2023-12-07T13:19:41;6.75;;;3.20;;
34711;SDS011;20941;42.408;25.634;2023-12-07T13:22:07;3.25;;;2.60;;
34711;SDS011;20941;42.408;25.634;2023-12-07T13:24:33;5.57;;;2.97;;
34711;SDS011;20941;42.408;25.634;2023-12-07T13:26:58;9.07;;;3.83;;
34711;SDS011;20941;42.408;25.634;2023-12-07T13:29:27;4.97;;;2.95;;
34711;SDS011;20941;42.408;25.634;2023-12-07T13:31:54;11.43;;;4.22;;
34711;SDS011;20941;42.408;25.634;2023-12-07T13:34:20;2.40;;;1.73;;
34711;SDS011;20941;42.408;25.634;2023-12-07T13:36:46;10.88;;;4.05;;
34711;SDS011;20941;42.408;25.634;2023-12-07T13:39:13;7.43;;;3.83;;
34711;SDS011;20941;42.408;25.634;2023-12-07T13:41:39;5.82;;;3.22;;
34711;SDS011;20941;42.408;25.634;2023-12-07T13:44:05;3.03;;;1.90;;
34711;SDS011;20941;42.408;25.634;2023-12-07T13:46:32;4.10;;;2.63;;
34711;SDS011;20941;42.408;25.634;2023-12-07T13:48:58;5.53;;;2.67;;
34711;SDS011;20941;42.408;25.634;2023-12-07T13:51:24;7.13;;;2.97;;
34711;SDS011;20941;42.408;25.634;2023-12-07T13:53:50;10.23;;;4.07;;
34711;SDS011;20941;42.408;25.634;2023-12-07T13:56:20;6.80;;;3.28;;
34711;SDS011;20941;42.408;25.634;2023-12-07T13:58:46;6.00;;;2.40;;
34711;SDS011;20941;42.408;25.634;2023-12-07T14:01:14;5.32;;;2.28;;
34711;SDS011;20941;42.408;25.634;2023-12-07T14:03:40;3.58;;;1.80;;
34711;SDS011;20941;42.408;25.634;2023-12-07T14:06:06;5.50;;;2.65;;
34711;SDS011;20941;42.408;25.634;2023-12-07T14:08:33;3.00;;;1.70;;
34711;SDS011;20941;42.408;25.634;2023-12-07T14:11:01;8.18;;;2.45;;
34711;SDS011;20941;42.408;25.634;2023-12-07T14:13:27;2.90;;;1.67;;
34711;SDS011;20941;42.408;25.634;2023-12-07T14:15:53;4.30;;;1.55;;
34711;SDS011;20941;42.408;25.634;2023-12-07T14:18:19;4.47;;;1.45;;
34711;SDS011;20941;42.408;25.634;2023-12-07T14:20:53;1.42;;;1.02;;
34711;SDS011;20941;42.408;25.634;2023-12-07T14:23:19;3.30;;;1.88;;
34711;SDS011;20941;42.408;25.634;2023-12-07T14:25:45;3.25;;;2.05;;
34711;SDS011;20941;42.408;25.634;2023-12-07T14:28:13;2.80;;;1.42;;
34711;SDS011;20941;42.408;25.634;2023-12-07T14:30:40;0.45;;;0.35;;
34711;SDS011;20941;42.408;25.634;2023-12-07T14:33:06;3.22;;;2.00;;